Time,TemperatureF,DewpointF,PressureIn,WindDirection,WindDirectionDegrees,WindSpeedMPH,WindSpeedGustMPH,Humidity,HourlyPrecipIn,Conditions,Clouds,dailyrainin,SoftwareType,DateUTC
2013-04-09 00:03:00,63.3,57.7,29.87,SSW,199,0.0,5.0,82,0.00,,,0.19,meteohub,2013-04-09 05:03:00,
2013-04-09 00:08:00,63.3,57.7,29.87,SSW,199,0.0,5.0,82,0.00,,,0.00,meteohub,2013-04-09 05:08:00,
2013-04-09 00:14:00,63.1,57.6,29.87,SSW,199,0.0,5.0,82,0.00,,,0.00,meteohub,2013-04-09 05:14:00,
2013-04-09 00:20:00,63.0,57.4,29.87,SSW,199,0.0,5.0,82,0.00,,,0.00,meteohub,2013-04-09 05:20:00,
2013-04-09 00:25:00,62.8,57.2,29.87,SSW,199,0.0,5.0,82,0.00,,,0.00,meteohub,2013-04-09 05:25:00,
2013-04-09 00:30:00,62.6,57.0,29.88,SSW,199,0.0,5.0,82,0.00,,,0.00,meteohub,2013-04-09 05:30:00,
2013-04-09 00:35:00,62.4,57.2,29.88,SSW,199,0.0,5.0,83,0.00,,,0.00,meteohub,2013-04-09 05:35:00,
2013-04-09 00:40:00,62.2,57.0,29.88,SSW,199,0.0,0.0,83,0.00,,,0.00,meteohub,2013-04-09 05:40:00,
2013-04-09 00:45:00,62.2,57.0,29.88,SSW,199,0.0,5.0,83,0.00,,,0.00,meteohub,2013-04-09 05:45:00,
2013-04-09 00:51:00,62.2,57.0,29.88,SSW,199,0.0,5.0,83,0.00,,,0.00,meteohub,2013-04-09 05:51:00,
2013-04-09 00:56:00,62.4,57.2,29.87,SSW,199,0.0,5.0,83,0.00,,,0.00,meteohub,2013-04-09 05:56:00,
2013-04-09 01:02:00,62.6,57.0,29.87,SSW,201,0.0,9.0,82,0.00,,,0.00,meteohub,2013-04-09 06:02:00,
2013-04-09 01:07:00,62.8,57.2,29.87,SSW,201,0.0,9.0,82,0.00,,,0.00,meteohub,2013-04-09 06:07:00,
2013-04-09 01:12:00,63.0,57.0,29.87,SSW,201,0.0,9.0,81,0.00,,,0.00,meteohub,2013-04-09 06:12:00,
2013-04-09 01:18:00,62.8,56.8,29.87,SSW,201,0.0,5.0,81,0.00,,,0.00,meteohub,2013-04-09 06:18:00,
2013-04-09 01:23:00,62.8,56.8,29.87,SSW,201,0.0,5.0,81,0.00,,,0.00,meteohub,2013-04-09 06:23:00,
2013-04-09 01:28:00,63.1,57.2,29.87,SSE,167,0.0,5.0,81,0.00,,,0.00,meteohub,2013-04-09 06:28:00,
2013-04-09 01:34:00,63.3,57.0,29.87,SSE,167,0.0,8.0,80,0.00,,,0.00,meteohub,2013-04-09 06:34:00,
2013-04-09 01:39:00,63.3,57.0,29.86,SSW,201,0.0,8.0,80,0.00,,,0.00,meteohub,2013-04-09 06:39:00,
2013-04-09 01:45:00,63.1,56.8,29.86,South,174,0.0,9.0,80,0.00,,,0.00,meteohub,2013-04-09 06:45:00,
2013-04-09 01:50:00,63.1,56.8,29.86,South,174,0.0,6.0,80,0.00,,,0.00,meteohub,2013-04-09 06:50:00,
2013-04-09 01:56:00,63.1,56.8,29.86,South,174,0.0,5.0,80,0.00,,,0.00,meteohub,2013-04-09 06:56:00,
2013-04-09 02:01:00,63.0,56.7,29.86,South,174,0.0,5.0,80,0.00,,,0.00,meteohub,2013-04-09 07:01:00,
2013-04-09 02:06:00,62.8,56.8,29.85,South,174,5.0,6.0,81,0.00,,,0.00,meteohub,2013-04-09 07:06:00,
2013-04-09 02:12:00,62.4,56.5,29.85,South,174,5.0,6.0,81,0.00,,,0.00,meteohub,2013-04-09 07:12:00,
2013-04-09 02:17:00,62.1,56.5,29.84,South,174,0.0,6.0,82,0.00,,,0.00,meteohub,2013-04-09 07:17:00,
2013-04-09 02:22:00,61.9,56.3,29.85,South,174,0.0,6.0,82,0.00,,,0.00,meteohub,2013-04-09 07:22:00,
2013-04-09 02:27:00,61.0,55.8,29.85,South,174,0.0,6.0,83,0.00,,,0.00,meteohub,2013-04-09 07:27:00,
2013-04-09 02:32:00,60.1,55.2,29.85,South,174,0.0,6.0,84,0.00,,,0.00,meteohub,2013-04-09 07:32:00,
2013-04-09 02:37:00,59.7,55.6,29.84,South,174,0.0,6.0,86,0.00,,,0.00,meteohub,2013-04-09 07:37:00,
2013-04-09 02:42:00,59.7,55.6,29.84,South,174,5.0,6.0,86,0.00,,,0.00,meteohub,2013-04-09 07:42:00,
2013-04-09 02:47:00,59.9,55.8,29.83,South,174,0.0,6.0,86,0.00,,,0.00,meteohub,2013-04-09 07:47:00,
2013-04-09 02:53:00,59.7,55.6,29.83,South,174,0.0,5.0,86,0.00,,,0.00,meteohub,2013-04-09 07:53:00,
2013-04-09 02:58:00,59.9,55.8,29.84,South,174,0.0,5.0,86,0.00,,,0.00,meteohub,2013-04-09 07:58:00,
2013-04-09 03:04:00,60.1,55.6,29.84,South,174,0.0,5.0,85,0.00,,,0.00,meteohub,2013-04-09 08:04:00,
2013-04-09 03:09:00,59.9,55.8,29.84,South,174,0.0,5.0,86,0.00,,,0.00,meteohub,2013-04-09 08:09:00,
2013-04-09 03:14:00,59.9,55.8,29.84,South,174,0.0,5.0,86,0.00,,,0.00,meteohub,2013-04-09 08:14:00,
2013-04-09 03:19:00,60.1,55.9,29.84,South,174,0.0,5.0,86,0.00,,,0.00,meteohub,2013-04-09 08:19:00,
2013-04-09 03:24:00,60.3,55.8,29.84,South,174,5.0,5.0,85,0.00,,,0.00,meteohub,2013-04-09 08:24:00,
2013-04-09 03:30:00,60.3,55.8,29.84,SSE,168,5.0,5.0,85,0.00,,,0.00,meteohub,2013-04-09 08:30:00,
2013-04-09 03:35:00,60.6,55.8,29.84,SSE,168,5.0,6.0,84,0.00,,,0.00,meteohub,2013-04-09 08:35:00,
2013-04-09 03:40:00,60.6,55.8,29.84,SSE,168,0.0,7.0,84,0.00,,,0.00,meteohub,2013-04-09 08:40:00,
2013-04-09 03:45:00,60.8,55.9,29.84,SSE,168,0.0,7.0,84,0.00,,,0.00,meteohub,2013-04-09 08:45:00,
2013-04-09 03:50:00,61.0,56.1,29.84,SSE,168,5.0,7.0,84,0.00,,,0.00,meteohub,2013-04-09 08:50:00,
2013-04-09 03:56:00,60.8,55.9,29.85,SSE,152,5.0,7.0,84,0.00,,,0.00,meteohub,2013-04-09 08:56:00,
2013-04-09 04:01:00,61.0,56.1,29.85,SE,133,5.0,7.0,84,0.00,,,0.00,meteohub,2013-04-09 09:01:00,
2013-04-09 04:06:00,61.0,56.1,29.85,South,170,0.0,7.0,84,0.00,,,0.00,meteohub,2013-04-09 09:06:00,
2013-04-09 04:11:00,61.2,56.3,29.85,South,173,0.0,8.0,84,0.00,,,0.00,meteohub,2013-04-09 09:11:00,
2013-04-09 04:16:00,61.2,56.3,29.84,SSE,157,6.0,8.0,84,0.00,,,0.00,meteohub,2013-04-09 09:16:00,
2013-04-09 04:21:00,61.2,56.3,29.84,South,170,0.0,8.0,84,0.00,,,0.00,meteohub,2013-04-09 09:21:00,
2013-04-09 04:27:00,61.2,56.3,29.85,SSE,166,0.0,8.0,84,0.00,,,0.00,meteohub,2013-04-09 09:27:00,
2013-04-09 04:32:00,61.2,56.3,29.85,SSE,166,0.0,6.0,84,0.00,,,0.00,meteohub,2013-04-09 09:32:00,
2013-04-09 04:37:00,61.3,56.5,29.85,SSE,149,5.0,6.0,84,0.00,,,0.00,meteohub,2013-04-09 09:37:00,
2013-04-09 04:42:00,61.3,56.5,29.85,SSE,167,5.0,7.0,84,0.00,,,0.00,meteohub,2013-04-09 09:42:00,
2013-04-09 04:47:00,61.3,56.5,29.85,SSE,167,0.0,7.0,84,0.00,,,0.00,meteohub,2013-04-09 09:47:00,
2013-04-09 04:53:00,61.3,56.5,29.84,SSE,161,0.0,7.0,84,0.00,,,0.00,meteohub,2013-04-09 09:53:00,
2013-04-09 04:58:00,61.5,56.7,29.84,SSE,159,0.0,6.0,84,0.00,,,0.00,meteohub,2013-04-09 09:58:00,
2013-04-09 05:03:00,61.7,56.8,29.85,SSE,159,0.0,6.0,84,0.00,,,0.00,meteohub,2013-04-09 10:03:00,
2013-04-09 05:08:00,61.7,56.8,29.85,SSE,159,0.0,6.0,84,0.00,,,0.00,meteohub,2013-04-09 10:08:00,
2013-04-09 05:14:00,61.5,56.7,29.85,SSE,159,0.0,6.0,84,0.00,,,0.00,meteohub,2013-04-09 10:14:00,
2013-04-09 05:20:00,61.5,56.7,29.85,SE,130,0.0,6.0,84,0.00,,,0.00,meteohub,2013-04-09 10:20:00,
2013-04-09 05:25:00,61.5,56.7,29.85,SE,144,0.0,8.0,84,0.00,,,0.00,meteohub,2013-04-09 10:25:00,
2013-04-09 05:31:00,61.7,56.8,29.85,SSE,153,5.0,9.0,84,0.00,,,0.00,meteohub,2013-04-09 10:31:00,
2013-04-09 05:36:00,61.7,56.8,29.85,ESE,120,5.0,9.0,84,0.00,,,0.00,meteohub,2013-04-09 10:36:00,
2013-04-09 05:41:00,61.9,57.0,29.84,SSE,168,0.0,8.0,84,0.00,,,0.00,meteohub,2013-04-09 10:41:00,
2013-04-09 05:46:00,61.7,56.8,29.84,SE,145,6.0,8.0,84,0.00,,,0.00,meteohub,2013-04-09 10:46:00,
2013-04-09 05:52:00,61.5,56.7,29.85,SE,130,0.0,8.0,84,0.00,,,0.00,meteohub,2013-04-09 10:52:00,
2013-04-09 05:57:00,61.5,56.7,29.85,SE,124,5.0,7.0,84,0.00,,,0.00,meteohub,2013-04-09 10:57:00,
2013-04-09 06:02:00,61.5,56.7,29.85,SE,124,0.0,8.0,84,0.00,,,0.00,meteohub,2013-04-09 11:02:00,
2013-04-09 06:07:00,61.5,57.0,29.85,ESE,116,6.0,8.0,85,0.00,,,0.00,meteohub,2013-04-09 11:07:00,
2013-04-09 06:12:00,61.3,56.8,29.85,SSE,159,0.0,8.0,85,0.00,,,0.00,meteohub,2013-04-09 11:12:00,
2013-04-09 06:17:00,61.3,56.8,29.85,SE,129,0.0,8.0,85,0.00,,,0.00,meteohub,2013-04-09 11:17:00,
2013-04-09 06:22:00,61.3,57.2,29.85,SE,138,0.0,8.0,86,0.00,,,0.00,meteohub,2013-04-09 11:22:00,
2013-04-09 06:28:00,61.3,57.2,29.85,SE,138,0.0,8.0,86,0.00,,,0.00,meteohub,2013-04-09 11:28:00,
2013-04-09 06:33:00,61.3,57.2,29.85,SE,138,0.0,8.0,86,0.00,,,0.00,meteohub,2013-04-09 11:33:00,
2013-04-09 06:38:00,61.3,56.8,29.85,SSE,168,0.0,6.0,85,0.00,,,0.00,meteohub,2013-04-09 11:38:00,
2013-04-09 06:44:00,61.3,56.8,29.85,South,180,7.0,7.0,85,0.00,,,0.00,meteohub,2013-04-09 11:44:00,
2013-04-09 06:49:00,61.5,57.0,29.84,SSE,153,0.0,8.0,85,0.00,,,0.00,meteohub,2013-04-09 11:49:00,
2013-04-09 06:54:00,61.5,57.0,29.84,SSE,157,5.0,10.0,85,0.00,,,0.00,meteohub,2013-04-09 11:54:00,
2013-04-09 07:00:00,61.7,56.8,29.84,South,170,5.0,10.0,84,0.00,,,0.00,meteohub,2013-04-09 12:00:00,
2013-04-09 07:05:00,61.9,57.0,29.84,SSE,166,0.0,8.0,84,0.00,,,0.00,meteohub,2013-04-09 12:05:00,
2013-04-09 07:10:00,61.9,56.7,29.84,South,188,6.0,8.0,83,0.00,,,0.00,meteohub,2013-04-09 12:10:00,
2013-04-09 07:15:00,62.1,56.8,29.84,SSE,166,0.0,9.0,83,0.00,,,0.00,meteohub,2013-04-09 12:15:00,
2013-04-09 07:20:00,62.2,57.0,29.84,South,178,0.0,9.0,83,0.00,,,0.00,meteohub,2013-04-09 12:20:00,
2013-04-09 07:26:00,62.2,57.0,29.84,South,175,6.0,9.0,83,0.00,,,0.00,meteohub,2013-04-09 12:26:00,
2013-04-09 07:31:00,62.2,57.0,29.84,South,170,0.0,9.0,83,0.00,,,0.00,meteohub,2013-04-09 12:31:00,
2013-04-09 07:36:00,62.4,56.8,29.84,South,175,0.0,9.0,82,0.00,,,0.00,meteohub,2013-04-09 12:36:00,
2013-04-09 07:41:00,62.4,56.8,29.84,SE,142,5.0,9.0,82,0.00,,,0.00,meteohub,2013-04-09 12:41:00,
2013-04-09 07:47:00,62.4,56.8,29.84,SSW,193,7.0,10.0,82,0.00,,,0.00,meteohub,2013-04-09 12:47:00,
2013-04-09 07:52:00,62.4,56.8,29.84,South,177,0.0,10.0,82,0.00,,,0.00,meteohub,2013-04-09 12:52:00,
2013-04-09 07:57:00,62.4,56.8,29.84,SW,215,5.0,9.0,82,0.00,,,0.00,meteohub,2013-04-09 12:57:00,
2013-04-09 08:02:00,62.8,57.2,29.84,SSE,161,6.0,10.0,82,0.00,,,0.00,meteohub,2013-04-09 13:02:00,
2013-04-09 08:07:00,62.8,57.2,29.84,South,178,7.0,13.0,82,0.00,,,0.00,meteohub,2013-04-09 13:07:00,
2013-04-09 08:12:00,62.8,56.8,29.84,SE,138,8.0,13.0,81,0.00,,,0.00,meteohub,2013-04-09 13:12:00,
2013-04-09 08:18:00,63.0,57.0,29.83,South,172,7.0,13.0,81,0.00,,,0.00,meteohub,2013-04-09 13:18:00,
2013-04-09 08:23:00,63.1,57.2,29.83,SSW,195,0.0,9.0,81,0.00,,,0.00,meteohub,2013-04-09 13:23:00,
2013-04-09 08:29:00,63.1,57.2,29.83,SSW,195,5.0,9.0,81,0.00,,,0.00,meteohub,2013-04-09 13:29:00,
2013-04-09 08:34:00,63.7,57.4,29.83,South,182,5.0,9.0,80,0.00,,,0.00,meteohub,2013-04-09 13:34:00,
2013-04-09 08:39:00,64.0,57.7,29.83,South,175,5.0,9.0,80,0.00,,,0.00,meteohub,2013-04-09 13:39:00,
2013-04-09 08:44:00,64.2,57.6,29.83,SSW,198,5.0,10.0,79,0.00,,,0.00,meteohub,2013-04-09 13:44:00,
2013-04-09 08:50:00,64.8,58.1,29.83,South,169,0.0,10.0,79,0.00,,,0.00,meteohub,2013-04-09 13:50:00,
2013-04-09 08:55:00,65.1,58.1,29.83,South,181,5.0,12.0,78,0.00,,,0.00,meteohub,2013-04-09 13:55:00,
2013-04-09 09:00:00,65.7,58.3,29.83,SSE,163,0.0,12.0,77,0.00,,,0.00,meteohub,2013-04-09 14:00:00,
2013-04-09 09:06:00,65.8,58.5,29.83,SW,230,0.0,11.0,77,0.00,,,0.00,meteohub,2013-04-09 14:06:00,
2013-04-09 09:11:00,66.0,58.6,29.83,SSW,209,10.0,11.0,77,0.00,,,0.00,meteohub,2013-04-09 14:11:00,
2013-04-09 09:17:00,66.4,58.6,29.83,South,177,6.0,15.0,76,0.00,,,0.00,meteohub,2013-04-09 14:17:00,
2013-04-09 09:22:00,66.4,58.6,29.83,South,186,10.0,15.0,76,0.00,,,0.00,meteohub,2013-04-09 14:22:00,
2013-04-09 09:27:00,66.6,58.8,29.83,SSW,194,14.0,15.0,76,0.00,,,0.00,meteohub,2013-04-09 14:27:00,
2013-04-09 09:32:00,66.9,59.2,29.82,SSW,213,0.0,15.0,76,0.00,,,0.00,meteohub,2013-04-09 14:32:00,
2013-04-09 09:38:00,66.9,59.2,29.82,South,175,5.0,15.0,76,0.00,,,0.00,meteohub,2013-04-09 14:38:00,
2013-04-09 09:43:00,67.3,59.0,29.82,South,175,7.0,15.0,75,0.00,,,0.00,meteohub,2013-04-09 14:43:00,
2013-04-09 09:48:00,67.5,59.2,29.82,West,263,6.0,13.0,75,0.00,,,0.00,meteohub,2013-04-09 14:48:00,
2013-04-09 09:53:00,68.0,59.7,29.81,WSW,243,0.0,15.0,75,0.00,,,0.00,meteohub,2013-04-09 14:53:00,
2013-04-09 09:59:00,68.7,60.1,29.82,SSW,211,11.0,15.0,74,0.00,,,0.00,meteohub,2013-04-09 14:59:00,
2013-04-09 10:04:00,69.3,59.9,29.81,South,176,9.0,15.0,72,0.00,,,0.00,meteohub,2013-04-09 15:04:00,
2013-04-09 10:09:00,69.6,60.6,29.81,SW,218,13.0,15.0,73,0.00,,,0.00,meteohub,2013-04-09 15:09:00,
2013-04-09 10:14:00,69.6,60.3,29.81,SSW,199,8.0,17.0,72,0.00,,,0.00,meteohub,2013-04-09 15:14:00,
2013-04-09 10:19:00,69.8,60.4,29.81,West,265,0.0,22.0,72,0.00,,,0.00,meteohub,2013-04-09 15:19:00,
2013-04-09 10:25:00,70.3,60.4,29.81,SSW,193,16.0,22.0,71,0.00,,,0.00,meteohub,2013-04-09 15:25:00,
2013-04-09 10:30:00,71.2,61.0,29.80,SSW,195,5.0,22.0,70,0.00,,,0.00,meteohub,2013-04-09 15:30:00,
2013-04-09 10:35:00,71.6,60.8,29.80,South,189,12.0,20.0,69,0.00,,,0.00,meteohub,2013-04-09 15:35:00,
2013-04-09 10:40:00,71.8,60.6,29.80,SSW,212,11.0,25.0,68,0.00,,,0.00,meteohub,2013-04-09 15:40:00,
2013-04-09 10:45:00,72.0,60.8,29.80,SSW,206,8.0,25.0,68,0.00,,,0.00,meteohub,2013-04-09 15:45:00,
2013-04-09 10:50:00,72.9,60.8,29.80,SSW,207,15.0,25.0,66,0.00,,,0.00,meteohub,2013-04-09 15:50:00,
2013-04-09 10:55:00,73.2,60.8,29.80,SSW,211,8.0,22.0,65,0.00,,,0.00,meteohub,2013-04-09 15:55:00,
2013-04-09 11:01:00,73.4,61.0,29.80,SSW,213,10.0,23.0,65,0.00,,,0.00,meteohub,2013-04-09 16:01:00,
2013-04-09 11:06:00,73.0,61.0,29.80,SSW,211,13.0,23.0,66,0.00,,,0.00,meteohub,2013-04-09 16:06:00,
2013-04-09 11:11:00,73.6,61.2,29.80,SW,225,9.0,22.0,65,0.00,,,0.00,meteohub,2013-04-09 16:11:00,
2013-04-09 11:16:00,73.6,61.2,29.80,SSW,195,11.0,22.0,65,0.00,,,0.00,meteohub,2013-04-09 16:16:00,
2013-04-09 11:21:00,73.9,61.0,29.80,SSW,203,13.0,20.0,64,0.00,,,0.00,meteohub,2013-04-09 16:21:00,
2013-04-09 11:26:00,73.9,61.0,29.79,SW,229,10.0,25.0,64,0.00,,,0.00,meteohub,2013-04-09 16:26:00,
2013-04-09 11:31:00,74.5,61.0,29.80,WSW,252,8.0,26.0,63,0.00,,,0.00,meteohub,2013-04-09 16:31:00,
2013-04-09 11:37:00,74.1,61.5,29.79,West,280,7.0,26.0,65,0.00,,,0.00,meteohub,2013-04-09 16:37:00,
2013-04-09 11:42:00,74.1,61.2,29.79,SSW,210,12.0,26.0,64,0.00,,,0.00,meteohub,2013-04-09 16:42:00,
2013-04-09 11:47:00,74.3,60.8,29.80,SW,230,10.0,19.0,63,0.00,,,0.00,meteohub,2013-04-09 16:47:00,
2013-04-09 11:52:00,74.8,61.0,29.81,SW,224,9.0,19.0,62,0.00,,,0.00,meteohub,2013-04-09 16:52:00,
2013-04-09 11:57:00,75.2,60.8,29.81,SSW,207,8.0,19.0,61,0.00,,,0.00,meteohub,2013-04-09 16:57:00,
2013-04-09 12:02:00,75.4,61.0,29.80,SW,221,9.0,24.0,61,0.00,,,0.00,meteohub,2013-04-09 17:02:00,
2013-04-09 12:07:00,75.0,60.6,29.80,South,181,9.0,24.0,61,0.00,,,0.00,meteohub,2013-04-09 17:07:00,
2013-04-09 12:13:00,74.8,60.4,29.81,WSW,244,8.0,24.0,61,0.00,,,0.00,meteohub,2013-04-09 17:13:00,
2013-04-09 12:18:00,74.3,60.4,29.81,West,266,9.0,23.0,62,0.00,,,0.00,meteohub,2013-04-09 17:18:00,
2013-04-09 12:23:00,74.7,60.8,29.81,West,266,8.0,22.0,62,0.00,,,0.00,meteohub,2013-04-09 17:23:00,
2013-04-09 12:29:00,74.7,60.3,29.81,SSW,193,11.0,23.0,61,0.00,,,0.00,meteohub,2013-04-09 17:29:00,
2013-04-09 12:34:00,74.5,60.6,29.81,SW,236,11.0,23.0,62,0.00,,,0.00,meteohub,2013-04-09 17:34:00,
2013-04-09 12:40:00,74.5,60.1,29.81,SW,225,15.0,19.0,61,0.00,,,0.00,meteohub,2013-04-09 17:40:00,
2013-04-09 12:45:00,73.8,59.9,29.81,SW,217,13.0,28.0,62,0.00,,,0.00,meteohub,2013-04-09 17:45:00,
2013-04-09 12:50:00,73.8,59.9,29.81,SSW,198,11.0,28.0,62,0.00,,,0.00,meteohub,2013-04-09 17:50:00,
2013-04-09 12:55:00,73.8,59.9,29.81,WSW,238,5.0,28.0,62,0.00,,,0.00,meteohub,2013-04-09 17:55:00,
2013-04-09 13:00:00,74.7,59.9,29.80,SSW,206,11.0,26.0,60,0.00,,,0.00,meteohub,2013-04-09 18:00:00,
2013-04-09 13:06:00,74.7,60.3,29.81,SW,225,8.0,26.0,61,0.00,,,0.00,meteohub,2013-04-09 18:06:00,
2013-04-09 13:11:00,75.0,59.7,29.80,SW,219,12.0,25.0,59,0.00,,,0.00,meteohub,2013-04-09 18:11:00,
2013-04-09 13:16:00,74.7,59.9,29.80,West,263,12.0,25.0,60,0.00,,,0.00,meteohub,2013-04-09 18:16:00,
2013-04-09 13:22:00,74.7,59.9,29.80,SW,217,9.0,20.0,60,0.00,,,0.00,meteohub,2013-04-09 18:22:00,
2013-04-09 13:27:00,75.0,60.3,29.80,SSW,207,8.0,22.0,60,0.00,,,0.00,meteohub,2013-04-09 18:27:00,
2013-04-09 13:32:00,76.3,60.4,29.80,SW,235,10.0,22.0,58,0.00,,,0.00,meteohub,2013-04-09 18:32:00,
2013-04-09 13:37:00,76.3,59.4,29.79,SW,234,11.0,19.0,56,0.00,,,0.00,meteohub,2013-04-09 18:37:00,
2013-04-09 13:42:00,75.9,59.5,29.79,WSW,242,10.0,20.0,57,0.00,,,0.00,meteohub,2013-04-09 18:42:00,
2013-04-09 13:47:00,75.6,59.7,29.79,South,185,15.0,20.0,58,0.00,,,0.00,meteohub,2013-04-09 18:47:00,
2013-04-09 13:53:00,75.9,59.5,29.79,WSW,249,13.0,17.0,57,0.00,,,0.00,meteohub,2013-04-09 18:53:00,
2013-04-09 13:59:00,76.5,60.1,29.79,South,183,11.0,18.0,57,0.00,,,0.00,meteohub,2013-04-09 18:59:00,
2013-04-09 14:04:00,76.8,59.9,29.79,SE,134,13.0,18.0,56,0.00,,,0.00,meteohub,2013-04-09 19:04:00,
2013-04-09 14:09:00,75.6,59.7,29.79,WSW,252,11.0,16.0,58,0.00,,,0.00,meteohub,2013-04-09 19:09:00,
2013-04-09 14:14:00,75.4,59.5,29.79,West,261,6.0,20.0,58,0.00,,,0.00,meteohub,2013-04-09 19:14:00,
2013-04-09 14:20:00,75.9,60.6,29.78,SSW,207,10.0,20.0,59,0.00,,,0.00,meteohub,2013-04-09 19:20:00,
2013-04-09 14:25:00,77.4,60.4,29.78,SSW,201,12.0,26.0,56,0.00,,,0.00,meteohub,2013-04-09 19:25:00,
2013-04-09 14:30:00,77.2,60.3,29.78,South,180,12.0,26.0,56,0.00,,,0.00,meteohub,2013-04-09 19:30:00,
2013-04-09 14:36:00,76.5,60.6,29.78,WSW,249,8.0,22.0,58,0.00,,,0.00,meteohub,2013-04-09 19:36:00,
2013-04-09 14:41:00,77.7,60.8,29.78,SW,232,10.0,22.0,56,0.00,,,0.00,meteohub,2013-04-09 19:41:00,
2013-04-09 14:46:00,78.1,60.6,29.78,SW,218,8.0,22.0,55,0.00,,,0.00,meteohub,2013-04-09 19:46:00,
2013-04-09 14:52:00,78.1,60.6,29.78,SSW,206,11.0,17.0,55,0.00,,,0.00,meteohub,2013-04-09 19:52:00,
2013-04-09 14:57:00,77.5,60.1,29.77,WSW,252,8.0,16.0,55,0.00,,,0.00,meteohub,2013-04-09 19:57:00,
2013-04-09 15:02:00,78.1,60.1,29.77,SSW,201,6.0,24.0,54,0.00,,,0.00,meteohub,2013-04-09 20:02:00,
2013-04-09 15:07:00,78.8,60.8,29.77,SW,214,8.0,24.0,54,0.00,,,0.00,meteohub,2013-04-09 20:07:00,
2013-04-09 15:12:00,78.4,60.4,29.77,South,188,13.0,16.0,54,0.00,,,0.00,meteohub,2013-04-09 20:12:00,
2013-04-09 15:17:00,78.4,60.4,29.77,SW,216,10.0,19.0,54,0.00,,,0.00,meteohub,2013-04-09 20:17:00,
2013-04-09 15:22:00,78.3,60.3,29.77,WSW,258,8.0,19.0,54,0.00,,,0.00,meteohub,2013-04-09 20:22:00,
2013-04-09 15:28:00,78.6,60.1,29.77,SW,230,8.0,19.0,53,0.00,,,0.00,meteohub,2013-04-09 20:28:00,
2013-04-09 15:33:00,78.1,60.1,29.77,WSW,245,0.0,15.0,54,0.00,,,0.00,meteohub,2013-04-09 20:33:00,
2013-04-09 15:39:00,78.8,59.7,29.78,SW,226,10.0,14.0,52,0.00,,,0.00,meteohub,2013-04-09 20:39:00,
2013-04-09 15:44:00,79.2,60.1,29.77,SW,218,8.0,20.0,52,0.00,,,0.00,meteohub,2013-04-09 20:44:00,
2013-04-09 15:50:00,78.8,59.7,29.77,WSW,244,6.0,14.0,52,0.00,,,0.00,meteohub,2013-04-09 20:50:00,
2013-04-09 15:55:00,78.4,59.4,29.77,SW,222,7.0,17.0,52,0.00,,,0.00,meteohub,2013-04-09 20:55:00,
2013-04-09 16:00:00,79.0,59.9,29.78,SW,229,8.0,19.0,52,0.00,,,0.00,meteohub,2013-04-09 21:00:00,
2013-04-09 16:06:00,78.6,59.5,29.78,South,187,12.0,19.0,52,0.00,,,0.00,meteohub,2013-04-09 21:06:00,
2013-04-09 16:11:00,78.3,59.7,29.78,WSW,242,6.0,19.0,53,0.00,,,0.00,meteohub,2013-04-09 21:11:00,
2013-04-09 16:16:00,78.6,59.5,29.78,SW,216,6.0,19.0,52,0.00,,,0.00,meteohub,2013-04-09 21:16:00,
2013-04-09 16:21:00,78.1,60.1,29.78,SSW,201,5.0,19.0,54,0.00,,,0.00,meteohub,2013-04-09 21:21:00,
2013-04-09 16:27:00,77.7,59.7,29.78,WSW,245,7.0,13.0,54,0.00,,,0.00,meteohub,2013-04-09 21:27:00,
2013-04-09 16:32:00,77.4,59.4,29.78,SSW,205,10.0,12.0,54,0.00,,,0.00,meteohub,2013-04-09 21:32:00,
2013-04-09 16:37:00,76.6,59.7,29.78,WSW,251,5.0,16.0,56,0.00,,,0.00,meteohub,2013-04-09 21:37:00,
2013-04-09 16:43:00,76.5,60.6,29.78,SSW,203,12.0,16.0,58,0.00,,,0.00,meteohub,2013-04-09 21:43:00,
2013-04-09 16:48:00,76.3,60.4,29.78,WSW,258,8.0,19.0,58,0.00,,,0.00,meteohub,2013-04-09 21:48:00,
2013-04-09 16:54:00,76.3,61.0,29.78,SW,215,6.0,19.0,59,0.00,,,0.00,meteohub,2013-04-09 21:54:00,
2013-04-09 16:59:00,76.3,61.0,29.78,WSW,248,6.0,16.0,59,0.00,,,0.00,meteohub,2013-04-09 21:59:00,
2013-04-09 17:04:00,76.3,61.0,29.79,WSW,241,12.0,16.0,59,0.00,,,0.00,meteohub,2013-04-09 22:04:00,
2013-04-09 17:10:00,76.3,61.3,29.79,SSE,157,16.0,16.0,60,0.00,,,0.00,meteohub,2013-04-09 22:10:00,
2013-04-09 17:15:00,75.9,61.5,29.79,South,184,12.0,15.0,61,0.00,,,0.00,meteohub,2013-04-09 22:15:00,
2013-04-09 17:20:00,75.7,61.9,29.79,West,264,10.0,16.0,62,0.00,,,0.00,meteohub,2013-04-09 22:20:00,
2013-04-09 17:25:00,75.7,61.9,29.79,WSW,254,8.0,16.0,62,0.00,,,0.00,meteohub,2013-04-09 22:25:00,
2013-04-09 17:30:00,75.7,61.9,29.79,SSW,195,10.0,16.0,62,0.00,,,0.00,meteohub,2013-04-09 22:30:00,
2013-04-09 17:36:00,75.9,61.9,29.79,SSW,196,14.0,16.0,62,0.00,,,0.00,meteohub,2013-04-09 22:36:00,
2013-04-09 17:42:00,75.6,61.7,29.79,SSW,211,11.0,16.0,62,0.00,,,0.00,meteohub,2013-04-09 22:42:00,
2013-04-09 17:47:00,75.7,61.9,29.79,SW,222,8.0,16.0,62,0.00,,,0.00,meteohub,2013-04-09 22:47:00,
2013-04-09 17:52:00,75.6,61.7,29.79,SSW,199,11.0,19.0,62,0.00,,,0.00,meteohub,2013-04-09 22:52:00,
2013-04-09 17:58:00,75.6,61.7,29.79,SW,221,8.0,19.0,62,0.00,,,0.00,meteohub,2013-04-09 22:58:00,
2013-04-09 18:03:00,75.4,61.5,29.79,SSW,196,12.0,19.0,62,0.00,,,0.00,meteohub,2013-04-09 23:03:00,
2013-04-09 18:08:00,75.2,61.3,29.79,SSW,196,9.0,16.0,62,0.00,,,0.00,meteohub,2013-04-09 23:08:00,
2013-04-09 18:13:00,75.0,61.5,29.79,SW,226,5.0,14.0,63,0.00,,,0.00,meteohub,2013-04-09 23:13:00,
2013-04-09 18:19:00,75.0,61.5,29.79,SSW,195,10.0,14.0,63,0.00,,,0.00,meteohub,2013-04-09 23:19:00,
2013-04-09 18:24:00,74.8,61.3,29.80,SSW,213,5.0,14.0,63,0.00,,,0.00,meteohub,2013-04-09 23:24:00,
2013-04-09 18:29:00,74.8,61.9,29.80,SSW,207,6.0,14.0,64,0.00,,,0.00,meteohub,2013-04-09 23:29:00,
2013-04-09 18:35:00,74.7,61.7,29.80,South,177,11.0,13.0,64,0.00,,,0.00,meteohub,2013-04-09 23:35:00,
2013-04-09 18:40:00,74.5,61.5,29.80,SSW,211,0.0,14.0,64,0.00,,,0.00,meteohub,2013-04-09 23:40:00,
2013-04-09 18:45:00,74.1,61.5,29.80,SSW,211,8.0,14.0,65,0.00,,,0.00,meteohub,2013-04-09 23:45:00,
2013-04-09 18:50:00,74.1,61.5,29.81,SSW,209,5.0,14.0,65,0.00,,,0.00,meteohub,2013-04-09 23:50:00,
2013-04-09 18:56:00,73.8,61.3,29.81,SSW,203,7.0,12.0,65,0.00,,,0.00,meteohub,2013-04-09 23:56:00,
2013-04-09 19:01:00,73.6,61.5,29.81,SSW,208,6.0,12.0,66,0.00,,,0.00,meteohub,2013-04-10 00:01:00,
2013-04-09 19:06:00,73.2,61.5,29.81,SSW,205,6.0,13.0,67,0.00,,,0.00,meteohub,2013-04-10 00:06:00,
2013-04-09 19:12:00,73.2,61.5,29.81,SSW,200,6.0,13.0,67,0.00,,,0.00,meteohub,2013-04-10 00:12:00,
2013-04-09 19:17:00,73.0,61.5,29.81,SSW,200,0.0,13.0,67,0.00,,,0.00,meteohub,2013-04-10 00:17:00,
2013-04-09 19:22:00,72.9,61.7,29.81,SSW,205,0.0,13.0,68,0.00,,,0.00,meteohub,2013-04-10 00:22:00,
2013-04-09 19:28:00,72.7,61.5,29.81,SSW,193,0.0,10.0,68,0.00,,,0.00,meteohub,2013-04-10 00:28:00,
2013-04-09 19:33:00,72.3,61.2,29.81,SSW,193,0.0,10.0,68,0.00,,,0.00,meteohub,2013-04-10 00:33:00,
2013-04-09 19:38:00,72.5,61.3,29.81,SSW,197,5.0,10.0,68,0.00,,,0.00,meteohub,2013-04-10 00:38:00,
2013-04-09 19:43:00,72.3,61.2,29.81,SSW,193,5.0,9.0,68,0.00,,,0.00,meteohub,2013-04-10 00:43:00,
2013-04-09 19:49:00,72.0,61.2,29.80,SSW,206,0.0,11.0,69,0.00,,,0.00,meteohub,2013-04-10 00:49:00,
2013-04-09 19:54:00,71.6,61.3,29.80,SSW,206,0.0,11.0,70,0.00,,,0.00,meteohub,2013-04-10 00:54:00,
2013-04-09 19:59:00,71.2,61.0,29.80,SSW,206,0.0,11.0,70,0.00,,,0.00,meteohub,2013-04-10 00:59:00,
2013-04-09 20:04:00,71.1,61.2,29.80,SSW,199,0.0,7.0,71,0.00,,,0.00,meteohub,2013-04-10 01:04:00,
2013-04-09 20:09:00,70.9,61.0,29.80,SSW,199,0.0,7.0,71,0.00,,,0.00,meteohub,2013-04-10 01:09:00,
2013-04-09 20:14:00,70.9,61.0,29.81,SSW,199,0.0,7.0,71,0.00,,,0.00,meteohub,2013-04-10 01:14:00,
2013-04-09 20:19:00,70.9,61.0,29.81,SSW,193,0.0,6.0,71,0.00,,,0.00,meteohub,2013-04-10 01:19:00,
2013-04-09 20:25:00,70.9,61.0,29.81,SSW,193,0.0,6.0,71,0.00,,,0.00,meteohub,2013-04-10 01:25:00,
2013-04-09 20:30:00,70.5,61.0,29.81,SSW,193,0.0,6.0,72,0.00,,,0.00,meteohub,2013-04-10 01:30:00,
2013-04-09 20:35:00,70.5,61.0,29.81,SSW,193,0.0,5.0,72,0.00,,,0.00,meteohub,2013-04-10 01:35:00,
2013-04-09 20:40:00,70.5,61.0,29.81,SSW,193,0.0,5.0,72,0.00,,,0.00,meteohub,2013-04-10 01:40:00,
2013-04-09 20:45:00,70.5,61.0,29.81,SSW,193,0.0,5.0,72,0.00,,,0.00,meteohub,2013-04-10 01:45:00,
2013-04-09 20:51:00,70.3,60.8,29.81,SSW,193,0.0,5.0,72,0.00,,,0.00,meteohub,2013-04-10 01:51:00,
2013-04-09 20:56:00,70.3,60.8,29.81,SSW,193,0.0,5.0,72,0.00,,,0.00,meteohub,2013-04-10 01:56:00,
2013-04-09 21:01:00,70.2,60.6,29.81,SSW,193,0.0,5.0,72,0.00,,,0.00,meteohub,2013-04-10 02:01:00,
2013-04-09 21:06:00,69.6,60.6,29.82,SSW,192,0.0,5.0,73,0.00,,,0.00,meteohub,2013-04-10 02:06:00,
2013-04-09 21:12:00,69.6,60.6,29.83,SSW,192,0.0,5.0,73,0.00,,,0.00,meteohub,2013-04-10 02:12:00,
2013-04-09 21:17:00,69.6,60.6,29.83,SSW,192,0.0,5.0,73,0.00,,,0.00,meteohub,2013-04-10 02:17:00,
2013-04-09 21:22:00,69.4,60.4,29.83,SSW,192,0.0,0.0,73,0.00,,,0.00,meteohub,2013-04-10 02:22:00,
2013-04-09 21:27:00,69.3,60.6,29.82,SSW,192,0.0,0.0,74,0.00,,,0.00,meteohub,2013-04-10 02:27:00,
2013-04-09 21:32:00,69.3,60.6,29.82,SSW,192,0.0,0.0,74,0.00,,,0.00,meteohub,2013-04-10 02:32:00,
2013-04-09 21:37:00,69.4,60.8,29.82,SSW,192,0.0,0.0,74,0.00,,,0.00,meteohub,2013-04-10 02:37:00,
2013-04-09 21:42:00,69.4,60.8,29.83,SSW,192,0.0,0.0,74,0.00,,,0.00,meteohub,2013-04-10 02:42:00,
2013-04-09 21:48:00,69.4,60.8,29.83,SSW,192,0.0,5.0,74,0.00,,,0.00,meteohub,2013-04-10 02:48:00,
2013-04-09 21:53:00,69.4,60.8,29.83,SSW,192,0.0,5.0,74,0.00,,,0.00,meteohub,2013-04-10 02:53:00,
2013-04-09 21:58:00,69.3,60.6,29.82,SSW,192,0.0,5.0,74,0.00,,,0.00,meteohub,2013-04-10 02:58:00,
2013-04-09 22:03:00,68.9,60.6,29.82,SSW,192,0.0,5.0,75,0.00,,,0.00,meteohub,2013-04-10 03:03:00,
2013-04-09 22:08:00,68.5,60.3,29.83,SSW,192,0.0,5.0,75,0.00,,,0.00,meteohub,2013-04-10 03:08:00,
2013-04-09 22:13:00,68.4,60.4,29.83,SSW,192,0.0,0.0,76,0.00,,,0.00,meteohub,2013-04-10 03:13:00,
2013-04-09 22:18:00,68.2,60.3,29.83,SSW,192,0.0,0.0,76,0.00,,,0.00,meteohub,2013-04-10 03:18:00,
2013-04-09 22:23:00,68.0,60.1,29.83,SSW,192,0.0,0.0,76,0.00,,,0.00,meteohub,2013-04-10 03:23:00,
2013-04-09 22:29:00,67.8,60.3,29.83,SSW,192,0.0,0.0,77,0.00,,,0.00,meteohub,2013-04-10 03:29:00,
2013-04-09 22:34:00,68.2,60.6,29.82,SSW,192,0.0,0.0,77,0.00,,,0.00,meteohub,2013-04-10 03:34:00,
2013-04-09 22:39:00,68.2,60.3,29.83,SSW,192,0.0,0.0,76,0.00,,,0.00,meteohub,2013-04-10 03:39:00,
2013-04-09 22:44:00,68.4,60.4,29.83,SSW,192,0.0,5.0,76,0.00,,,0.00,meteohub,2013-04-10 03:44:00,
2013-04-09 22:49:00,68.4,60.4,29.83,SSW,192,0.0,5.0,76,0.00,,,0.00,meteohub,2013-04-10 03:49:00,
2013-04-09 22:55:00,68.2,60.3,29.82,SSW,192,0.0,5.0,76,0.00,,,0.00,meteohub,2013-04-10 03:55:00,
2013-04-09 23:00:00,68.2,60.6,29.82,SSW,192,0.0,0.0,77,0.00,,,0.00,meteohub,2013-04-10 04:00:00,
2013-04-09 23:01:00,68.2,60.6,29.82,SSW,192,0.0,0.0,77,0.00,,,0.00,meteohub,2013-04-10 04:01:00,
2013-04-09 23:02:00,68.4,60.8,29.82,SSW,192,0.0,0.0,77,0.00,,,0.00,meteohub,2013-04-10 04:02:00,
2013-04-09 23:03:00,68.4,60.8,29.82,SSW,192,0.0,0.0,77,0.00,,,0.00,meteohub,2013-04-10 04:03:00,
2013-04-09 23:08:00,68.4,60.8,29.82,SSW,192,0.0,0.0,77,0.00,,,0.00,meteohub,2013-04-10 04:08:00,
2013-04-09 23:13:00,68.4,60.4,29.82,SSW,192,0.0,0.0,76,0.00,,,0.00,meteohub,2013-04-10 04:13:00,
2013-04-09 23:18:00,68.4,60.8,29.82,SSW,192,0.0,5.0,77,0.00,,,0.00,meteohub,2013-04-10 04:18:00,
2013-04-09 23:23:00,68.4,60.8,29.81,South,184,5.0,6.0,77,0.00,,,0.00,meteohub,2013-04-10 04:23:00,
2013-04-09 23:28:00,68.2,60.6,29.81,South,184,0.0,6.0,77,0.00,,,0.00,meteohub,2013-04-10 04:28:00,
2013-04-09 23:34:00,67.3,56.3,29.81,NE,53,5.0,6.0,68,0.00,,,0.00,meteohub,2013-04-10 04:34:00,
2013-04-09 23:39:00,62.2,52.7,29.81,NE,56,5.0,9.0,71,0.00,,,0.00,meteohub,2013-04-10 04:39:00,
2013-04-09 23:44:00,58.6,51.1,29.81,NE,35,0.0,10.0,76,0.00,,,0.00,meteohub,2013-04-10 04:44:00,
2013-04-09 23:49:00,57.4,51.3,29.81,NNE,25,6.0,10.0,80,0.00,,,0.00,meteohub,2013-04-10 04:49:00,
2013-04-09 23:54:00,57.6,52.2,29.81,NE,56,0.0,10.0,82,0.00,,,0.00,meteohub,2013-04-10 04:54:00,
2013-04-09 23:59:00,57.6,52.2,29.81,ENE,63,0.0,9.0,82,0.00,,,0.00,meteohub,2013-04-10 04:59:00,